createdAt,value
2023-04-27T00:02:06.310Z,7.80
2023-04-27T00:04:35.703Z,7.80
2023-04-27T00:07:03.641Z,7.80
2023-04-27T00:09:31.432Z,7.70
2023-04-27T00:11:59.314Z,7.70
2023-04-27T00:14:28.538Z,7.70
2023-04-27T00:16:56.854Z,7.60
2023-04-27T00:19:24.678Z,7.60
2023-04-27T00:21:53.834Z,7.50
2023-04-27T00:24:21.666Z,7.50
2023-04-27T00:26:49.648Z,7.40
2023-04-27T00:29:17.482Z,7.40
2023-04-27T00:31:45.520Z,7.40
2023-04-27T00:34:13.467Z,7.30
2023-04-27T00:36:41.254Z,7.30
2023-04-27T00:39:10.833Z,7.30
2023-04-27T00:41:39.671Z,7.20
2023-04-27T00:44:07.562Z,7.20
2023-04-27T00:46:36.124Z,7.20
2023-04-27T00:49:04.130Z,7.10
2023-04-27T00:51:32.193Z,7.10
2023-04-27T00:54:00.977Z,7.10
2023-04-27T00:56:30.200Z,7.00
2023-04-27T00:58:58.147Z,7.00
2023-04-27T01:01:26.895Z,7.00
2023-04-27T01:03:55.636Z,7.40
2023-04-27T01:06:23.678Z,6.90
2023-04-27T01:08:51.566Z,6.90
2023-04-27T01:11:19.963Z,6.80
2023-04-27T01:13:49.646Z,6.80
2023-04-27T01:16:19.422Z,6.80
2023-04-27T01:18:48.735Z,6.80
2023-04-27T01:21:16.580Z,6.70
2023-04-27T01:23:46.007Z,6.70
2023-04-27T01:26:16.258Z,6.70
2023-04-27T01:28:44.501Z,6.70
2023-04-27T01:31:12.736Z,6.60
2023-04-27T01:33:40.923Z,8.00
2023-04-27T01:36:10.530Z,6.60
2023-04-27T01:38:38.545Z,6.60
2023-04-27T01:41:09.247Z,6.50
2023-04-27T01:43:38.036Z,6.60
2023-04-27T01:46:09.765Z,6.50
2023-04-27T01:48:38.123Z,6.40
2023-04-27T01:51:06.174Z,6.40
2023-04-27T01:53:34.138Z,6.40
2023-04-27T01:56:02.063Z,6.30
2023-04-27T01:58:31.497Z,6.30
2023-04-27T02:00:59.337Z,6.30
2023-04-27T02:03:27.302Z,6.30
2023-04-27T02:05:55.448Z,6.20
2023-04-27T02:08:23.313Z,6.20
2023-04-27T02:10:51.266Z,6.20
2023-04-27T02:13:19.136Z,6.20
2023-04-27T02:15:49.009Z,6.10
2023-04-27T02:18:16.940Z,6.20
2023-04-27T02:20:44.721Z,6.10
2023-04-27T02:23:12.999Z,6.10
2023-04-27T02:25:44.553Z,6.00
2023-04-27T02:28:12.663Z,6.00
2023-04-27T02:30:41.348Z,6.00
2023-04-27T02:33:10.604Z,6.00
2023-04-27T02:35:38.506Z,6.00
2023-04-27T02:38:06.670Z,5.70
2023-04-27T02:40:34.950Z,7.20
2023-04-27T02:43:02.752Z,5.90
2023-04-27T02:45:30.768Z,5.90
2023-04-27T02:47:58.582Z,5.90
2023-04-27T02:50:27.758Z,5.80
2023-04-27T02:52:55.766Z,5.80
2023-04-27T02:55:23.556Z,5.80
2023-04-27T02:57:51.503Z,5.80
2023-04-27T03:00:19.855Z,5.80
2023-04-27T03:02:47.948Z,5.80
2023-04-27T03:05:16.129Z,5.80
2023-04-27T03:07:45.695Z,5.70
2023-04-27T03:10:13.666Z,5.70
2023-04-27T03:12:41.532Z,5.70
2023-04-27T03:15:10.507Z,5.70
2023-04-27T03:17:38.318Z,5.70
2023-04-27T03:20:09.609Z,5.60
2023-04-27T03:22:37.462Z,5.60
2023-04-27T03:25:07.798Z,5.60
2023-04-27T03:27:35.648Z,5.60
2023-04-27T03:30:04.435Z,5.60
2023-04-27T03:32:32.306Z,5.60
2023-04-27T03:35:00.158Z,5.50
2023-04-27T03:37:28.249Z,5.50
2023-04-27T03:39:56.076Z,5.50
2023-04-27T03:42:25.358Z,5.50
2023-04-27T03:44:53.206Z,5.40
2023-04-27T03:47:21.905Z,5.40
2023-04-27T03:49:51.024Z,5.40
2023-04-27T03:52:18.790Z,5.70
2023-04-27T03:54:47.691Z,5.30
2023-04-27T03:57:16.239Z,5.30
2023-04-27T03:59:45.948Z,5.30
2023-04-27T04:02:14.696Z,5.30
2023-04-27T04:04:42.949Z,5.30
2023-04-27T04:07:11.833Z,5.30
2023-04-27T04:09:39.647Z,5.40
2023-04-27T04:12:07.953Z,5.20
2023-04-27T04:14:35.810Z,5.20
2023-04-27T04:17:05.063Z,5.30
2023-04-27T04:19:34.678Z,6.80
2023-04-27T04:22:02.530Z,5.20
2023-04-27T04:24:30.301Z,5.20
2023-04-27T04:26:58.620Z,5.20
2023-04-27T04:29:27.210Z,5.10
2023-04-27T04:31:56.392Z,5.10
2023-04-27T04:34:25.581Z,5.10
2023-04-27T04:36:53.433Z,5.10
2023-04-27T04:39:21.507Z,5.10
2023-04-27T04:41:50.412Z,5.10
2023-04-27T04:44:18.210Z,5.10
2023-04-27T04:46:47.029Z,5.10
2023-04-27T04:49:15.090Z,5.10
2023-04-27T04:51:46.231Z,5.00
2023-04-27T04:54:14.625Z,5.00
2023-04-27T04:56:42.527Z,5.00
2023-04-27T04:59:10.640Z,5.00
2023-04-27T05:01:38.565Z,5.00
2023-04-27T05:04:06.726Z,5.30
2023-04-27T05:06:35.158Z,5.00
2023-04-27T05:09:05.131Z,5.00
2023-04-27T05:11:32.931Z,5.00
2023-04-27T05:14:00.906Z,5.10
2023-04-27T05:16:28.762Z,5.10
2023-04-27T05:18:56.571Z,5.10
2023-04-27T05:21:24.396Z,5.10
2023-04-27T05:23:52.256Z,5.20
2023-04-27T05:26:21.612Z,5.20
2023-04-27T05:28:50.710Z,5.20
2023-04-27T05:31:18.794Z,5.30
2023-04-27T05:33:46.951Z,5.30
2023-04-27T05:36:14.913Z,5.30
2023-04-27T05:38:43.668Z,5.40
2023-04-27T05:41:11.786Z,5.40
2023-04-27T05:43:40.989Z,5.50
2023-04-27T05:46:09.295Z,5.60
2023-04-27T05:48:37.187Z,5.60
2023-04-27T05:51:05.606Z,5.70
2023-04-27T05:53:34.367Z,5.80
2023-04-27T05:56:04.330Z,5.80
2023-04-27T05:58:32.902Z,5.90
2023-04-27T06:01:03.535Z,6.00
2023-04-27T06:03:31.680Z,6.00
2023-04-27T06:06:01.328Z,6.10
2023-04-27T06:08:29.537Z,6.20
2023-04-27T06:10:57.797Z,6.30
2023-04-27T06:13:25.894Z,6.40
2023-04-27T06:15:53.788Z,6.50
2023-04-27T06:18:23.093Z,6.60
2023-04-27T06:20:51.382Z,6.70
2023-04-27T06:23:19.321Z,8.10
2023-04-27T06:25:47.521Z,6.90
2023-04-27T06:28:15.941Z,7.00
2023-04-27T06:30:43.767Z,7.10
2023-04-27T06:33:11.699Z,7.20
2023-04-27T06:35:41.223Z,7.30
2023-04-27T06:38:09.015Z,7.40
2023-04-27T06:40:37.811Z,7.50
2023-04-27T06:43:05.718Z,7.60
2023-04-27T06:45:33.525Z,7.70
2023-04-27T06:48:01.441Z,7.80
2023-04-27T06:50:29.350Z,8.00
2023-04-27T06:52:58.766Z,8.10
2023-04-27T06:55:26.638Z,8.20
2023-04-27T06:57:54.496Z,8.30
2023-04-27T07:00:22.860Z,8.50
2023-04-27T07:02:51.818Z,8.60
2023-04-27T07:05:20.034Z,8.70
2023-04-27T07:07:48.707Z,8.80
2023-04-27T07:10:17.986Z,9.00
2023-04-27T07:12:46.116Z,9.10
2023-04-27T07:15:15.111Z,9.30
2023-04-27T07:17:42.993Z,9.40
2023-04-27T07:20:10.942Z,9.50
2023-04-27T07:22:38.857Z,9.60
2023-04-27T07:25:07.488Z,9.70
2023-04-27T07:27:38.316Z,9.90
2023-04-27T07:30:09.355Z,10.00
2023-04-27T07:32:38.311Z,10.10
2023-04-27T07:35:07.105Z,10.70
2023-04-27T07:37:34.951Z,10.30
2023-04-27T07:40:06.050Z,10.50
2023-04-27T07:42:33.872Z,10.60
2023-04-27T07:45:03.123Z,10.70
2023-04-27T07:47:31.013Z,10.80
2023-04-27T07:49:58.793Z,10.90
2023-04-27T07:52:26.660Z,11.00
2023-04-27T07:54:54.577Z,11.10
2023-04-27T07:57:22.550Z,11.20
2023-04-27T07:59:50.931Z,11.30
2023-04-27T08:02:20.580Z,11.40
2023-04-27T08:04:49.522Z,11.50
2023-04-27T08:07:18.171Z,11.60
2023-04-27T08:09:46.170Z,11.60
2023-04-27T08:12:14.208Z,11.70
2023-04-27T08:14:42.058Z,11.70
2023-04-27T08:17:09.915Z,11.80
2023-04-27T08:19:39.639Z,11.90
2023-04-27T08:22:07.478Z,11.90
2023-04-27T08:24:35.342Z,12.10
2023-04-27T08:27:04.282Z,12.10
2023-04-27T08:29:32.340Z,12.30
2023-04-27T08:32:02.264Z,12.30
2023-04-27T08:34:30.675Z,12.40
2023-04-27T08:37:00.294Z,12.50
2023-04-27T08:39:28.741Z,12.60
2023-04-27T08:41:56.824Z,12.60
2023-04-27T08:44:24.763Z,12.70
2023-04-27T08:46:52.734Z,12.80
2023-04-27T08:49:21.665Z,12.90
2023-04-27T08:51:50.794Z,12.90
2023-04-27T08:54:21.855Z,13.00
2023-04-27T08:56:50.998Z,13.10
2023-04-27T08:59:18.816Z,13.20
2023-04-27T09:01:49.326Z,13.20
2023-04-27T09:04:18.687Z,13.30
2023-04-27T09:06:46.854Z,13.40
2023-04-27T09:09:25.051Z,13.40
2023-04-27T09:11:52.995Z,13.50
2023-04-27T09:14:23.400Z,13.60
2023-04-27T09:16:58.004Z,13.70
2023-04-27T09:19:27.122Z,13.70
2023-04-27T09:22:04.780Z,13.80
2023-04-27T09:24:34.042Z,13.90
2023-04-27T09:27:03.186Z,13.90
2023-04-27T09:29:35.249Z,14.00
2023-04-27T09:32:03.605Z,14.10
2023-04-27T09:34:40.998Z,14.10
2023-04-27T09:37:09.867Z,14.20
2023-04-27T09:39:39.700Z,14.30
2023-04-27T09:42:08.443Z,14.30
2023-04-27T09:44:37.105Z,14.40
2023-04-27T09:47:05.920Z,14.30
2023-04-27T09:49:35.992Z,14.70
2023-04-27T09:52:04.079Z,14.60
2023-04-27T09:54:34.459Z,14.70
2023-04-27T09:57:15.449Z,14.80
2023-04-27T10:00:01.260Z,14.80
2023-04-27T10:02:33.112Z,12.90
2023-04-27T10:05:27.046Z,15.10
2023-04-27T10:07:55.152Z,15.20
2023-04-27T10:10:23.213Z,15.30
2023-04-27T10:13:01.788Z,15.40
2023-04-27T10:15:30.491Z,15.70
2023-04-27T10:18:06.338Z,15.60
2023-04-27T10:20:35.866Z,15.60
2023-04-27T10:23:04.144Z,15.70
2023-04-27T10:25:40.151Z,15.80
2023-04-27T10:28:09.457Z,15.80
2023-04-27T10:30:38.735Z,15.90
2023-04-27T10:33:08.369Z,16.00
2023-04-27T10:35:37.855Z,16.00
2023-04-27T10:38:09.423Z,16.10
2023-04-27T10:40:38.733Z,16.20
2023-04-27T10:43:12.916Z,16.30
2023-04-27T10:45:40.907Z,16.30
2023-04-27T10:48:09.473Z,16.40
2023-04-27T10:50:37.333Z,16.50
2023-04-27T10:53:06.563Z,16.50
2023-04-27T10:55:35.543Z,16.50
2023-04-27T10:58:04.355Z,16.60
2023-04-27T11:00:38.260Z,16.70
2023-04-27T11:03:15.564Z,16.70
2023-04-27T11:05:45.005Z,16.90
2023-04-27T11:08:16.035Z,16.90
2023-04-27T11:10:45.998Z,17.00
2023-04-27T11:13:16.039Z,17.00
2023-04-27T11:15:47.971Z,17.10
2023-04-27T11:18:17.189Z,17.10
2023-04-27T11:20:49.016Z,17.10
2023-04-27T11:23:25.901Z,17.20
2023-04-27T11:25:54.459Z,17.20
2023-04-27T11:28:22.760Z,17.20
2023-04-27T11:30:58.183Z,17.30
2023-04-27T11:33:26.280Z,17.30
2023-04-27T11:35:54.604Z,17.30
2023-04-27T11:38:22.746Z,17.30
2023-04-27T11:41:01.242Z,17.40
2023-04-27T11:43:30.017Z,17.40
2023-04-27T11:45:59.533Z,17.50
2023-04-27T11:48:29.008Z,17.50
2023-04-27T11:51:01.038Z,17.60
2023-04-27T11:53:33.791Z,17.60
2023-04-27T11:56:05.070Z,17.60
2023-04-27T11:58:35.912Z,17.70
2023-04-27T12:01:05.370Z,17.70
2023-04-27T12:03:33.621Z,17.70
2023-04-27T12:08:32.562Z,17.80
2023-04-27T12:11:00.394Z,17.80
2023-04-27T12:13:28.528Z,17.80
2023-04-27T12:15:57.317Z,17.90
2023-04-27T12:18:27.653Z,18.00
2023-04-27T12:20:55.452Z,18.00
2023-04-27T12:23:23.392Z,18.00
2023-04-27T12:25:51.692Z,19.20
2023-04-27T12:28:20.470Z,18.20
2023-04-27T12:30:49.796Z,18.20
2023-04-27T12:33:17.915Z,18.20
2023-04-27T12:35:47.728Z,18.20
2023-04-27T12:38:15.742Z,18.30
2023-04-27T12:40:44.187Z,18.30
2023-04-27T12:43:12.981Z,18.40
2023-04-27T12:45:41.069Z,18.40
2023-04-27T12:48:08.938Z,18.50
2023-04-27T12:50:38.830Z,18.50
2023-04-27T12:53:07.997Z,18.60
2023-04-27T12:55:36.799Z,18.60
2023-04-27T12:58:05.222Z,18.60
2023-04-27T13:00:34.172Z,18.60
2023-04-27T13:03:02.083Z,18.70
2023-04-27T13:05:31.904Z,18.80
2023-04-27T13:08:00.294Z,18.80
2023-04-27T13:10:29.919Z,18.90
2023-04-27T13:12:58.783Z,19.00
2023-04-27T13:15:26.606Z,19.10
2023-04-27T13:17:57.630Z,19.20
2023-04-27T13:20:25.565Z,19.30
2023-04-27T13:22:53.530Z,19.40
2023-04-27T13:25:21.508Z,19.40
2023-04-27T13:27:51.671Z,19.50
2023-04-27T13:30:21.974Z,19.60
2023-04-27T13:32:50.758Z,19.80
2023-04-27T13:35:18.785Z,19.90
2023-04-27T13:37:46.753Z,20.00
2023-04-27T13:40:15.305Z,20.10
2023-04-27T13:42:43.090Z,21.60
2023-04-27T13:45:13.041Z,20.20
2023-04-27T13:47:41.090Z,20.30
2023-04-27T13:50:10.857Z,20.40
2023-04-27T13:52:39.714Z,20.50
2023-04-27T13:55:10.602Z,20.60
2023-04-27T13:57:38.691Z,20.60
2023-04-27T14:00:11.682Z,20.70
2023-04-27T14:02:41.287Z,20.70
2023-04-27T14:05:09.725Z,20.70
2023-04-27T14:07:37.720Z,20.70
2023-04-27T14:10:06.894Z,20.70
2023-04-27T14:12:35.799Z,20.70
2023-04-27T14:15:05.189Z,20.70
2023-04-27T14:17:33.070Z,20.80
2023-04-27T14:20:02.322Z,20.90
2023-04-27T14:22:31.464Z,20.90
2023-04-27T14:24:59.294Z,20.90
2023-04-27T14:27:27.296Z,20.90
2023-04-27T14:29:55.248Z,20.90
2023-04-27T14:32:23.401Z,21.00
2023-04-27T14:34:51.509Z,21.00
2023-04-27T14:37:20.847Z,21.00
2023-04-27T14:39:48.885Z,21.00
2023-04-27T14:42:16.729Z,21.00
2023-04-27T14:44:44.540Z,21.10
2023-04-27T14:47:12.868Z,21.20
2023-04-27T14:49:41.287Z,22.90
2023-04-27T14:52:09.325Z,21.30
2023-04-27T14:54:41.525Z,21.30
2023-04-27T14:57:09.741Z,21.40
2023-04-27T14:59:37.527Z,21.40
2023-04-27T15:02:05.721Z,21.50
2023-04-27T15:04:35.348Z,21.60
2023-04-27T15:07:03.281Z,21.50
2023-04-27T15:09:31.200Z,21.60
2023-04-27T15:12:01.849Z,21.60
2023-04-27T15:14:29.895Z,21.60
2023-04-27T15:16:57.783Z,21.60
2023-04-27T15:19:26.033Z,21.50
2023-04-27T15:21:54.037Z,21.50
2023-04-27T15:24:22.061Z,21.40
2023-04-27T15:26:50.580Z,21.40
2023-04-27T15:29:19.909Z,21.40
2023-04-27T15:31:48.891Z,21.30
2023-04-27T15:34:16.924Z,21.40
2023-04-27T15:36:45.136Z,21.40
2023-04-27T15:39:13.518Z,21.40
2023-04-27T15:41:41.665Z,21.50
2023-04-27T15:44:09.567Z,21.50
2023-04-27T15:46:38.847Z,21.60
2023-04-27T15:49:07.091Z,21.50
2023-04-27T15:51:34.888Z,21.50
2023-04-27T15:54:02.966Z,21.40
2023-04-27T15:56:30.998Z,21.40
2023-04-27T15:58:59.194Z,21.30
2023-04-27T16:01:27.587Z,21.20
2023-04-27T16:03:57.030Z,21.20
2023-04-27T16:06:31.640Z,21.20
2023-04-27T16:08:59.670Z,21.30
2023-04-27T16:11:27.517Z,21.40
2023-04-27T16:13:55.452Z,21.70
2023-04-27T16:16:23.373Z,21.50
2023-04-27T16:18:51.261Z,21.50
2023-04-27T16:21:20.619Z,21.40
2023-04-27T16:23:48.771Z,21.30
2023-04-27T16:26:16.784Z,21.20
2023-04-27T16:28:44.579Z,21.10
2023-04-27T16:31:13.498Z,20.90
2023-04-27T16:33:41.619Z,20.80
2023-04-27T16:36:11.551Z,20.60
2023-04-27T16:38:40.914Z,20.50
2023-04-27T16:41:09.154Z,20.30
2023-04-27T16:43:37.044Z,20.20
2023-04-27T16:46:05.135Z,20.00
2023-04-27T16:48:33.046Z,19.80
2023-04-27T16:51:01.075Z,19.70
2023-04-27T16:53:28.991Z,19.50
2023-04-27T16:56:00.730Z,19.40
2023-04-27T16:58:29.390Z,19.20
2023-04-27T17:00:57.923Z,19.10
2023-04-27T17:03:26.878Z,19.00
2023-04-27T17:05:54.724Z,18.90
2023-04-27T17:08:22.561Z,18.80
2023-04-27T17:10:50.846Z,18.70
2023-04-27T17:13:20.079Z,18.70
2023-04-27T17:15:48.174Z,18.60
2023-04-27T17:18:16.137Z,18.50
2023-04-27T17:20:44.297Z,18.50
2023-04-27T17:23:12.575Z,18.40
2023-04-27T17:25:41.373Z,18.40
2023-04-27T17:28:09.280Z,18.30
2023-04-27T17:30:38.567Z,18.30
2023-04-27T17:33:06.775Z,18.20
2023-04-27T17:35:34.670Z,18.10
2023-04-27T17:38:02.713Z,18.10
2023-04-27T17:40:31.746Z,17.00
2023-04-27T17:43:00.170Z,17.90
2023-04-27T17:45:28.997Z,17.90
2023-04-27T17:47:58.357Z,17.80
2023-04-27T17:50:26.882Z,17.80
2023-04-27T17:52:55.071Z,17.70
2023-04-27T17:55:23.211Z,17.60
2023-04-27T17:57:51.520Z,17.60
2023-04-27T18:00:19.964Z,17.50
2023-04-27T18:02:49.882Z,17.50
2023-04-27T18:05:19.368Z,17.40
2023-04-27T18:07:47.597Z,17.40
2023-04-27T18:10:15.772Z,17.30
2023-04-27T18:12:44.142Z,17.30
2023-04-27T18:15:12.937Z,17.20
2023-04-27T18:17:41.069Z,17.20
2023-04-27T18:20:10.770Z,17.40
2023-04-27T18:22:41.264Z,17.10
2023-04-27T18:25:10.887Z,17.10
2023-04-27T18:27:38.918Z,17.00
2023-04-27T18:30:08.771Z,17.00
2023-04-27T18:32:37.003Z,16.90
2023-04-27T18:35:06.316Z,16.90
2023-04-27T18:37:34.114Z,16.80
2023-04-27T18:40:05.803Z,16.80
2023-04-27T18:42:33.681Z,16.70
2023-04-27T18:45:01.863Z,16.90
2023-04-27T18:47:29.810Z,16.70
2023-04-27T18:49:57.643Z,16.60
2023-04-27T18:52:25.529Z,16.60
2023-04-27T18:54:53.366Z,16.50
2023-04-27T18:57:22.669Z,16.50
2023-04-27T18:59:50.732Z,16.50
2023-04-27T19:02:18.660Z,16.40
2023-04-27T19:04:52.846Z,16.40
2023-04-27T19:07:29.882Z,16.40
2023-04-27T19:09:57.692Z,16.40
2023-04-27T19:12:27.066Z,16.30
2023-04-27T19:14:55.026Z,16.20
2023-04-27T19:17:23.154Z,16.20
2023-04-27T19:19:51.343Z,16.20
2023-04-27T19:22:19.197Z,16.30
2023-04-27T19:24:47.003Z,16.10
2023-04-27T19:27:14.905Z,16.10
2023-04-27T19:29:55.207Z,16.10
2023-04-27T19:32:25.227Z,16.00
2023-04-27T19:34:53.482Z,16.00
2023-04-27T19:37:21.793Z,15.90
2023-04-27T19:39:49.947Z,16.00
2023-04-27T19:42:17.807Z,18.30
2023-04-27T19:44:45.932Z,15.80
2023-04-27T19:47:15.858Z,15.80
2023-04-27T19:49:43.660Z,15.80
2023-04-27T19:52:11.550Z,15.80
2023-04-27T19:54:39.416Z,15.70
2023-04-27T19:57:07.245Z,15.70
2023-04-27T19:59:35.126Z,15.70
2023-04-27T20:02:03.045Z,15.70
2023-04-27T20:04:32.880Z,15.60
2023-04-27T20:07:01.165Z,15.60
2023-04-27T20:09:29.011Z,15.60
2023-04-27T20:11:56.854Z,15.50
2023-04-27T20:14:24.941Z,15.50
2023-04-27T20:16:52.985Z,15.50
2023-04-27T20:19:22.562Z,15.40
2023-04-27T20:21:51.786Z,15.40
2023-04-27T20:24:19.711Z,15.40
2023-04-27T20:26:47.576Z,15.40
2023-04-27T20:29:16.015Z,15.40
2023-04-27T20:31:44.813Z,15.40
2023-04-27T20:34:13.598Z,15.30
2023-04-27T20:36:41.692Z,15.30
2023-04-27T20:39:11.897Z,15.30
2023-04-27T20:41:41.907Z,15.30
2023-04-27T20:44:10.510Z,15.20
2023-04-27T20:46:38.937Z,15.20
2023-04-27T20:49:06.990Z,15.20
2023-04-27T20:51:34.808Z,15.20
2023-04-27T20:54:02.772Z,15.10
2023-04-27T20:56:32.917Z,15.20
2023-04-27T20:59:00.900Z,15.10
2023-04-27T21:01:28.783Z,15.10
2023-04-27T21:03:56.800Z,15.10
2023-04-27T21:06:24.711Z,15.00
2023-04-27T21:08:52.649Z,15.00
2023-04-27T21:11:21.175Z,15.00
2023-04-27T21:13:50.596Z,14.90
2023-04-27T21:16:18.449Z,16.90
2023-04-27T21:18:46.395Z,14.90
2023-04-27T21:21:14.338Z,14.90
2023-04-27T21:23:42.117Z,14.80
2023-04-27T21:26:10.761Z,14.80
2023-04-27T21:28:40.167Z,14.80
2023-04-27T21:31:09.627Z,14.80
2023-04-27T21:33:38.082Z,14.80
2023-04-27T21:36:09.620Z,14.80
2023-04-27T21:38:37.461Z,14.80
2023-04-27T21:41:05.271Z,14.70
2023-04-27T21:43:33.106Z,14.70
2023-04-27T21:46:01.215Z,14.70
2023-04-27T21:48:30.363Z,14.60
2023-04-27T21:50:58.248Z,14.80
2023-04-27T21:53:26.332Z,14.60
2023-04-27T21:55:57.108Z,14.60
2023-04-27T21:58:24.995Z,14.60
2023-04-27T22:00:52.818Z,14.50
2023-04-27T22:03:21.566Z,14.50
2023-04-27T22:05:52.748Z,14.50
2023-04-27T22:08:21.698Z,14.40
2023-04-27T22:10:49.792Z,14.40
2023-04-27T22:13:19.441Z,14.40
2023-04-27T22:15:48.591Z,14.40
2023-04-27T22:18:16.519Z,14.40
2023-04-27T22:20:44.678Z,14.40
2023-04-27T22:23:14.450Z,14.40
2023-04-27T22:25:43.371Z,14.40
2023-04-27T22:28:11.566Z,14.30
2023-04-27T22:30:40.853Z,14.60
2023-04-27T22:33:09.262Z,14.30
2023-04-27T22:35:38.297Z,14.40
2023-04-27T22:38:06.986Z,14.30
2023-04-27T22:40:36.267Z,14.30
2023-04-27T22:43:04.178Z,14.30
2023-04-27T22:45:32.043Z,14.20
2023-04-27T22:47:59.917Z,14.20
2023-04-27T22:50:27.745Z,14.20
2023-04-27T22:52:55.572Z,14.20
2023-04-27T22:55:23.454Z,14.10
2023-04-27T22:57:53.878Z,14.20
2023-04-27T23:00:22.369Z,14.10
2023-04-27T23:02:50.647Z,14.20
2023-04-27T23:05:18.650Z,14.10
2023-04-27T23:07:46.599Z,14.10
2023-04-27T23:10:15.067Z,14.10
2023-04-27T23:12:42.919Z,14.10
2023-04-27T23:15:12.865Z,14.10
2023-04-27T23:17:41.191Z,14.10
2023-04-27T23:20:24.242Z,14.10
2023-04-27T23:22:55.785Z,14.00
2023-04-27T23:25:23.722Z,14.00
2023-04-27T23:27:52.745Z,14.00
2023-04-27T23:30:23.207Z,14.00
2023-04-27T23:32:51.149Z,14.00
2023-04-27T23:35:19.221Z,14.00
2023-04-27T23:37:47.257Z,14.00
2023-04-27T23:40:15.544Z,14.00
2023-04-27T23:42:43.494Z,13.90
2023-04-27T23:45:12.536Z,13.90
2023-04-27T23:47:42.145Z,13.90
2023-04-27T23:50:10.632Z,13.90
2023-04-27T23:52:38.472Z,13.90
2023-04-27T23:55:07.346Z,13.90
2023-04-27T23:57:35.149Z,13.80
